createdAt,value
2019-06-08T00:01:20.602Z,12.15
2019-06-08T00:03:48.189Z,12.82
2019-06-08T00:06:16.809Z,13.17
2019-06-08T00:08:45.622Z,12.55
2019-06-08T00:11:15.041Z,13.10
2019-06-08T00:13:42.763Z,13.83
2019-06-08T00:16:11.283Z,12.93
2019-06-08T00:18:39.776Z,13.60
2019-06-08T00:21:08.352Z,12.93
2019-06-08T00:23:38.742Z,12.33
2019-06-08T00:26:07.650Z,12.35
2019-06-08T00:28:36.223Z,12.68
2019-06-08T00:31:05.206Z,11.97
2019-06-08T00:33:33.762Z,11.88
2019-06-08T00:36:02.317Z,10.78
2019-06-08T00:38:30.843Z,10.82
2019-06-08T00:40:59.427Z,10.03
2019-06-08T00:43:27.899Z,10.43
2019-06-08T00:45:56.406Z,10.32
2019-06-08T00:48:25.190Z,10.80
2019-06-08T00:50:53.727Z,10.20
2019-06-08T00:53:23.253Z,9.55
2019-06-08T00:55:50.919Z,9.18
2019-06-08T00:58:20.417Z,9.10
2019-06-08T01:00:49.082Z,8.98
2019-06-08T01:03:17.628Z,8.80
2019-06-08T01:05:45.949Z,9.20
2019-06-08T01:08:14.557Z,9.18
2019-06-08T01:10:43.182Z,9.35
2019-06-08T01:13:11.655Z,8.53
2019-06-08T01:15:40.502Z,7.78
2019-06-08T01:18:09.186Z,7.65
2019-06-08T01:20:37.670Z,7.75
2019-06-08T01:23:06.243Z,8.65
2019-06-08T01:25:34.755Z,8.33
2019-06-08T01:28:03.307Z,9.60
2019-06-08T01:30:31.952Z,8.43
2019-06-08T01:33:00.578Z,8.70
2019-06-08T01:35:29.118Z,8.08
2019-06-08T01:37:57.974Z,8.03
2019-06-08T01:40:27.461Z,8.93
2019-06-08T01:42:55.372Z,9.00
2019-06-08T01:45:30.086Z,8.93
2019-06-08T01:47:58.366Z,9.43
2019-06-08T01:50:28.248Z,9.05
2019-06-08T01:52:55.879Z,9.68
2019-06-08T01:55:25.126Z,9.30
2019-06-08T01:57:52.998Z,9.68
2019-06-08T02:00:30.508Z,9.25
2019-06-08T02:02:50.226Z,8.28
2019-06-08T02:05:18.818Z,8.03
2019-06-08T02:07:47.478Z,9.43
2019-06-08T02:10:16.098Z,9.23
2019-06-08T02:12:45.147Z,8.73
2019-06-08T02:15:13.772Z,9.13
2019-06-08T02:17:42.338Z,8.40
2019-06-08T02:20:10.946Z,8.73
2019-06-08T02:22:39.802Z,9.75
2019-06-08T02:25:08.422Z,8.83
2019-06-08T02:27:36.985Z,8.70
2019-06-08T02:30:07.697Z,9.48
2019-06-08T02:32:37.367Z,9.28
2019-06-08T02:35:05.467Z,8.58
2019-06-08T02:37:35.466Z,9.03
2019-06-08T02:40:02.561Z,9.10
2019-06-08T02:42:32.636Z,10.72
2019-06-08T02:45:00.027Z,9.80
2019-06-08T02:47:30.333Z,10.95
2019-06-08T02:49:57.587Z,10.95
2019-06-08T02:52:26.170Z,11.60
2019-06-08T02:54:54.979Z,11.20
2019-06-08T02:57:23.806Z,11.53
2019-06-08T02:59:52.479Z,10.93
2019-06-08T03:02:21.202Z,10.38
2019-06-08T03:04:50.032Z,9.63
2019-06-08T03:07:18.693Z,10.38
2019-06-08T03:09:47.428Z,10.15
2019-06-08T03:12:16.074Z,9.85
2019-06-08T03:14:44.608Z,10.88
2019-06-08T03:17:13.394Z,10.75
2019-06-08T03:19:42.061Z,9.83
2019-06-08T03:22:11.091Z,10.10
2019-06-08T03:24:39.431Z,10.40
2019-06-08T03:27:08.034Z,10.80
2019-06-08T03:29:37.644Z,11.18
2019-06-08T03:32:05.540Z,12.23
2019-06-08T03:34:35.612Z,11.68
2019-06-08T03:37:02.778Z,11.65
2019-06-08T03:39:31.737Z,12.40
2019-06-08T03:42:00.226Z,12.53
2019-06-08T03:44:28.710Z,12.45
2019-06-08T03:46:57.301Z,12.20
2019-06-08T03:49:41.197Z,14.23
2019-06-08T03:51:54.722Z,14.87
2019-06-08T03:54:23.545Z,11.05
2019-06-08T03:56:52.036Z,7.80
2019-06-08T03:59:20.598Z,6.70
2019-06-08T04:01:49.987Z,7.15
2019-06-08T04:04:18.298Z,7.20
2019-06-08T04:06:46.829Z,7.87
2019-06-08T04:09:15.366Z,7.50
2019-06-08T04:11:46.252Z,8.50
2019-06-08T04:14:12.921Z,9.03
2019-06-08T04:16:42.881Z,8.70
2019-06-08T04:19:10.161Z,7.83
2019-06-08T04:21:40.286Z,8.70
2019-06-08T04:24:07.272Z,9.23
2019-06-08T04:26:36.070Z,9.40
2019-06-08T04:29:07.050Z,10.08
2019-06-08T04:31:35.577Z,10.05
2019-06-08T04:34:05.054Z,10.58
2019-06-08T04:36:33.550Z,11.20
2019-06-08T04:39:02.048Z,12.90
2019-06-08T04:41:30.553Z,13.80
2019-06-08T04:43:59.420Z,14.78
2019-06-08T04:46:27.950Z,16.67
2019-06-08T04:48:57.002Z,14.83
2019-06-08T04:51:25.501Z,15.30
2019-06-08T04:53:54.191Z,16.17
2019-06-08T04:56:22.695Z,16.05
2019-06-08T04:58:51.568Z,15.72
2019-06-08T05:01:20.030Z,16.07
2019-06-08T05:03:49.965Z,16.27
2019-06-08T05:06:17.337Z,16.02
2019-06-08T05:08:47.342Z,15.85
2019-06-08T05:11:15.617Z,17.10
2019-06-08T05:13:45.363Z,16.75
2019-06-08T05:16:12.740Z,17.70
2019-06-08T05:18:43.050Z,16.37
2019-06-08T05:21:10.361Z,16.70
2019-06-08T05:23:39.314Z,16.30
2019-06-08T05:26:07.800Z,14.50
2019-06-08T05:28:36.389Z,16.00
2019-06-08T05:31:04.976Z,14.50
2019-06-08T05:33:33.549Z,15.63
2019-06-08T05:36:02.088Z,15.65
2019-06-08T05:38:30.622Z,14.47
2019-06-08T05:40:59.176Z,15.40
2019-06-08T05:43:27.740Z,15.53
2019-06-08T05:45:56.983Z,15.15
2019-06-08T05:48:25.528Z,15.32
2019-06-08T05:51:03.604Z,14.15
2019-06-08T05:53:23.765Z,14.78
2019-06-08T05:55:52.244Z,15.88
2019-06-08T05:58:20.709Z,15.72
2019-06-08T06:00:50.462Z,15.45
2019-06-08T06:03:17.840Z,16.35
2019-06-08T06:05:46.576Z,15.80
2019-06-08T06:08:18.795Z,16.67
2019-06-08T06:10:44.684Z,16.80
2019-06-08T06:13:12.424Z,15.85
2019-06-08T06:15:41.316Z,17.77
2019-06-08T06:18:09.872Z,17.25
2019-06-08T06:20:38.820Z,18.30
2019-06-08T06:23:07.405Z,17.23
2019-06-08T06:25:36.012Z,17.45
2019-06-08T06:28:06.390Z,17.12
2019-06-08T06:30:34.123Z,17.17
2019-06-08T06:33:02.709Z,17.07
2019-06-08T06:35:31.456Z,16.70
2019-06-08T06:38:00.044Z,17.32
2019-06-08T06:40:28.603Z,16.35
2019-06-08T06:42:57.072Z,15.58
2019-06-08T06:45:25.612Z,15.75
2019-06-08T06:47:54.148Z,16.02
2019-06-08T06:50:22.679Z,15.65
2019-06-08T06:52:51.201Z,16.12
2019-06-08T06:55:19.991Z,15.43
2019-06-08T06:57:49.267Z,16.40
2019-06-08T07:00:17.236Z,14.95
2019-06-08T07:02:45.739Z,15.75
2019-06-08T07:05:14.631Z,15.60
2019-06-08T07:07:44.105Z,17.02
2019-06-08T07:10:11.719Z,16.10
2019-06-08T07:12:41.168Z,15.80
2019-06-08T07:15:09.763Z,16.62
2019-06-08T07:17:38.296Z,16.57
2019-06-08T07:20:07.492Z,16.32
2019-06-08T07:22:36.291Z,14.60
2019-06-08T07:25:05.175Z,16.75
2019-06-08T07:27:34.891Z,16.82
2019-06-08T07:30:03.799Z,16.23
2019-06-08T07:32:32.373Z,16.20
2019-06-08T07:35:00.899Z,16.62
2019-06-08T07:37:29.564Z,17.17
2019-06-08T07:39:58.163Z,17.27
2019-06-08T07:42:26.696Z,17.60
2019-06-08T07:44:55.311Z,18.05
2019-06-08T07:47:23.879Z,17.52
2019-06-08T07:49:53.257Z,16.70
2019-06-08T07:52:21.510Z,17.37
2019-06-08T07:54:52.883Z,17.60
2019-06-08T07:57:20.303Z,17.37
2019-06-08T07:59:50.327Z,17.40
2019-06-08T08:02:18.199Z,17.02
2019-06-08T08:04:46.757Z,17.35
2019-06-08T08:07:15.615Z,15.98
2019-06-08T08:09:44.195Z,17.20
2019-06-08T08:12:12.723Z,18.02
2019-06-08T08:14:41.287Z,17.57
2019-06-08T08:17:10.153Z,17.30
2019-06-08T08:19:38.911Z,16.90
2019-06-08T08:22:22.291Z,16.90
2019-06-08T08:24:38.497Z,17.60
2019-06-08T08:27:04.887Z,16.95
2019-06-08T08:29:33.403Z,16.80
2019-06-08T08:32:02.149Z,16.95
2019-06-08T08:34:30.953Z,16.80
2019-06-08T08:37:06.055Z,17.05
2019-06-08T08:39:28.278Z,17.40
2019-06-08T08:42:02.955Z,17.87
2019-06-08T08:44:25.743Z,17.73
2019-06-08T08:46:54.732Z,17.75
2019-06-08T08:49:23.108Z,17.02
2019-06-08T08:51:52.203Z,18.15
2019-06-08T08:54:20.328Z,17.37
2019-06-08T08:56:52.182Z,17.07
2019-06-08T08:59:17.838Z,16.82
2019-06-08T09:01:48.281Z,16.40
2019-06-08T09:04:14.865Z,17.43
2019-06-08T09:06:43.581Z,16.75
2019-06-08T09:09:12.220Z,16.75
2019-06-08T09:11:41.251Z,16.67
2019-06-08T09:14:13.690Z,16.20
2019-06-08T09:16:38.473Z,16.95
2019-06-08T09:19:08.495Z,16.90
2019-06-08T09:21:35.410Z,17.52
2019-06-08T09:24:04.696Z,16.15
2019-06-08T09:26:33.308Z,15.48
2019-06-08T09:29:05.029Z,15.65
2019-06-08T09:31:30.874Z,15.43
2019-06-08T09:34:08.641Z,14.70
2019-06-08T09:36:28.658Z,14.63
2019-06-08T09:39:00.629Z,14.85
2019-06-08T09:41:25.074Z,14.85
2019-06-08T09:43:55.272Z,15.48
2019-06-08T09:46:22.460Z,15.40
2019-06-08T09:48:50.982Z,14.90
2019-06-08T09:51:19.560Z,13.88
2019-06-08T09:53:48.148Z,14.87
2019-06-08T09:56:18.606Z,15.90
2019-06-08T09:58:45.428Z,13.80
2019-06-08T10:01:14.012Z,13.90
2019-06-08T10:03:42.707Z,12.78
2019-06-08T10:06:12.638Z,13.05
2019-06-08T10:08:40.012Z,12.37
2019-06-08T10:11:09.612Z,12.53
2019-06-08T10:13:39.150Z,12.82
2019-06-08T10:16:09.882Z,12.25
2019-06-08T10:18:34.770Z,13.25
2019-06-08T10:21:04.977Z,12.80
2019-06-08T10:23:34.678Z,11.65
2019-06-08T10:26:02.726Z,14.30
2019-06-08T10:28:29.604Z,14.10
2019-06-08T10:31:00.015Z,13.85
2019-06-08T10:33:28.164Z,13.85
2019-06-08T10:35:59.116Z,13.50
2019-06-08T10:38:24.712Z,13.28
2019-06-08T10:41:06.428Z,12.90
2019-06-08T10:43:28.947Z,13.18
2019-06-08T10:46:00.115Z,13.90
2019-06-08T10:48:27.511Z,13.78
2019-06-08T10:50:53.686Z,13.25
2019-06-08T10:53:22.279Z,12.82
2019-06-08T10:55:51.092Z,12.15
2019-06-08T10:58:19.988Z,12.58
2019-06-08T11:00:48.616Z,11.78
2019-06-08T11:03:17.327Z,11.57
2019-06-08T11:05:48.343Z,11.03
2019-06-08T11:08:14.957Z,11.23
2019-06-08T11:10:43.293Z,10.98
2019-06-08T11:13:14.878Z,11.18
2019-06-08T11:15:40.564Z,10.10
2019-06-08T11:18:11.833Z,10.00
2019-06-08T11:20:38.266Z,8.83
2019-06-08T11:23:10.253Z,9.43
2019-06-08T11:25:37.530Z,9.23
2019-06-08T11:28:07.908Z,8.93
2019-06-08T11:30:33.608Z,7.42
2019-06-08T11:33:03.616Z,8.13
2019-06-08T11:35:30.764Z,8.10
2019-06-08T11:38:00.211Z,8.00
2019-06-08T11:40:27.990Z,8.10
2019-06-08T11:42:58.620Z,8.33
2019-06-08T11:45:25.492Z,8.78
2019-06-08T11:47:54.102Z,8.08
2019-06-08T11:50:42.062Z,8.13
2019-06-08T11:53:12.656Z,8.68
2019-06-08T11:55:38.460Z,8.73
2019-06-08T11:58:07.541Z,8.53
2019-06-08T12:00:45.516Z,9.23
2019-06-08T12:03:14.100Z,8.73
2019-06-08T12:05:42.659Z,8.50
2019-06-08T12:08:11.207Z,7.95
2019-06-08T12:10:41.145Z,8.80
2019-06-08T12:13:09.775Z,8.45
2019-06-08T12:15:38.572Z,8.63
2019-06-08T12:18:08.299Z,8.73
2019-06-08T12:20:34.427Z,7.70
2019-06-08T12:23:03.898Z,7.90
2019-06-08T12:25:31.639Z,7.95
2019-06-08T12:28:00.203Z,8.48
2019-06-08T12:30:29.649Z,8.13
2019-06-08T12:32:58.153Z,7.90
2019-06-08T12:35:28.392Z,7.30
2019-06-08T12:37:57.947Z,7.58
2019-06-08T12:40:23.818Z,7.25
2019-06-08T12:42:52.300Z,6.75
2019-06-08T12:45:20.826Z,7.27
2019-06-08T12:47:49.286Z,6.85
2019-06-08T12:50:17.798Z,7.03
2019-06-08T12:52:47.658Z,7.17
2019-06-08T12:55:22.153Z,6.97
2019-06-08T12:57:43.526Z,6.50
2019-06-08T13:00:13.196Z,5.75
2019-06-08T13:02:40.668Z,6.67
2019-06-08T13:05:12.468Z,6.55
2019-06-08T13:07:38.554Z,6.83
2019-06-08T13:10:06.414Z,7.45
2019-06-08T13:12:34.996Z,6.78
2019-06-08T13:15:03.922Z,6.90
2019-06-08T13:17:32.390Z,6.92
2019-06-08T13:20:00.946Z,6.30
2019-06-08T13:22:31.483Z,6.53
2019-06-08T13:25:14.664Z,7.17
2019-06-08T13:27:28.187Z,6.65
2019-06-08T13:29:57.642Z,7.33
2019-06-08T13:32:24.350Z,7.55
2019-06-08T13:34:53.834Z,7.35
2019-06-08T13:37:22.354Z,7.25
2019-06-08T13:39:51.331Z,6.80
2019-06-08T13:42:21.833Z,7.50
2019-06-08T13:44:48.348Z,6.85
2019-06-08T13:47:18.932Z,4.12
2019-06-08T13:49:47.864Z,4.47
2019-06-08T13:52:14.219Z,3.83
2019-06-08T13:54:42.752Z,4.08
2019-06-08T13:57:11.299Z,4.25
2019-06-08T13:59:40.384Z,5.33
2019-06-08T14:02:08.952Z,4.78
2019-06-08T14:04:39.631Z,4.55
2019-06-08T14:07:07.791Z,7.75
2019-06-08T14:09:34.835Z,21.37
2019-06-08T14:12:03.556Z,23.55
2019-06-08T14:14:33.755Z,7.53
2019-06-08T14:17:00.685Z,3.50
2019-06-08T14:19:31.444Z,2.83
2019-06-08T14:21:57.909Z,2.50
2019-06-08T14:24:32.145Z,2.42
2019-06-08T14:26:55.663Z,2.83
2019-06-08T14:29:25.939Z,3.00
2019-06-08T14:31:53.162Z,3.60
2019-06-08T14:34:23.304Z,3.10
2019-06-08T14:36:50.286Z,3.58
2019-06-08T14:39:20.600Z,3.12
2019-06-08T14:41:49.410Z,2.70
2019-06-08T14:44:19.873Z,2.50
2019-06-08T14:46:48.071Z,2.90
2019-06-08T14:49:18.313Z,3.17
2019-06-08T14:51:49.775Z,2.50
2019-06-08T14:54:24.384Z,2.80
2019-06-08T14:56:47.839Z,2.37
2019-06-08T14:59:18.792Z,2.85
2019-06-08T15:01:45.077Z,2.35
2019-06-08T15:04:13.953Z,2.58
2019-06-08T15:06:42.493Z,2.62
2019-06-08T15:09:11.098Z,2.42
2019-06-08T15:11:39.664Z,2.80
2019-06-08T15:14:08.581Z,2.72
2019-06-08T15:16:38.590Z,2.62
2019-06-08T15:19:08.048Z,2.77
2019-06-08T15:21:34.285Z,2.70
2019-06-08T15:24:02.921Z,2.98
2019-06-08T15:26:39.859Z,3.00
2019-06-08T15:29:00.092Z,2.85
2019-06-08T15:31:31.055Z,3.15
2019-06-08T15:33:59.905Z,2.77
2019-06-08T15:36:29.340Z,2.52
2019-06-08T15:38:55.377Z,2.50
2019-06-08T15:41:24.574Z,2.20
2019-06-08T15:43:52.984Z,2.30
2019-06-08T15:46:22.076Z,2.30
2019-06-08T15:48:50.904Z,2.80
2019-06-08T15:51:19.524Z,2.72
2019-06-08T15:53:48.220Z,2.17
2019-06-08T15:56:18.698Z,2.72
2019-06-08T15:58:45.449Z,2.52
2019-06-08T16:01:14.817Z,2.47
2019-06-08T16:03:42.604Z,2.67
2019-06-08T16:06:11.244Z,2.30
2019-06-08T16:08:39.780Z,1.87
2019-06-08T16:11:08.359Z,2.08
2019-06-08T16:13:37.237Z,2.10
2019-06-08T16:16:05.820Z,2.00
2019-06-08T16:18:35.798Z,2.05
2019-06-08T16:21:03.067Z,2.20
2019-06-08T16:23:31.903Z,1.95
2019-06-08T16:26:00.248Z,1.85
2019-06-08T16:28:29.922Z,2.12
2019-06-08T16:30:57.516Z,2.05
2019-06-08T16:33:27.311Z,2.15
2019-06-08T16:36:14.448Z,1.72
2019-06-08T16:38:43.036Z,1.98
2019-06-08T16:41:11.696Z,2.08
2019-06-08T16:43:40.400Z,1.70
2019-06-08T16:46:09.297Z,2.02
2019-06-08T16:48:39.534Z,1.72
2019-06-08T16:51:06.977Z,1.72
2019-06-08T16:53:35.933Z,1.50
2019-06-08T16:56:05.161Z,1.70
2019-06-08T16:58:34.277Z,1.77
2019-06-08T17:01:02.748Z,1.77
2019-06-08T17:03:31.365Z,2.00
2019-06-08T17:05:59.936Z,1.80
2019-06-08T17:08:29.471Z,1.85
2019-06-08T17:10:57.185Z,2.10
2019-06-08T17:13:26.068Z,1.92
2019-06-08T17:15:54.617Z,1.50
2019-06-08T17:18:23.221Z,1.60
2019-06-08T17:20:51.853Z,1.80
2019-06-08T17:23:21.656Z,1.40
2019-06-08T17:25:50.264Z,1.70
2019-06-08T17:28:19.146Z,1.67
2019-06-08T17:30:47.699Z,1.70
2019-06-08T17:33:16.248Z,1.57
2019-06-08T17:35:44.985Z,1.60
2019-06-08T17:38:13.653Z,1.62
2019-06-08T17:40:42.541Z,1.90
2019-06-08T17:43:10.945Z,1.37
2019-06-08T17:45:40.723Z,1.72
2019-06-08T17:48:08.308Z,1.65
2019-06-08T17:50:36.937Z,1.45
2019-06-08T17:53:05.537Z,1.65
2019-06-08T17:55:35.128Z,1.60
2019-06-08T17:58:02.717Z,2.22
2019-06-08T18:00:31.436Z,2.33
2019-06-08T18:03:00.588Z,1.70
2019-06-08T18:05:29.008Z,2.00
2019-06-08T18:07:57.959Z,2.40
2019-06-08T18:10:27.714Z,1.87
2019-06-08T18:12:54.864Z,1.62
2019-06-08T18:15:23.464Z,2.20
2019-06-08T18:17:52.004Z,1.37
2019-06-08T18:20:20.667Z,1.70
2019-06-08T18:22:49.993Z,1.77
2019-06-08T18:25:17.924Z,2.05
2019-06-08T18:28:04.972Z,2.02
2019-06-08T18:30:17.996Z,1.80
2019-06-08T18:32:45.672Z,1.85
2019-06-08T18:35:13.134Z,1.87
2019-06-08T18:37:42.885Z,2.10
2019-06-08T18:40:10.367Z,2.50
2019-06-08T18:42:40.883Z,2.00
2019-06-08T18:45:07.946Z,1.87
2019-06-08T18:47:37.847Z,1.90
2019-06-08T18:50:08.643Z,2.20
2019-06-08T18:52:35.411Z,2.15
2019-06-08T18:55:03.641Z,2.40
2019-06-08T18:57:32.334Z,2.08
2019-06-08T19:00:08.131Z,2.05
2019-06-08T19:02:30.037Z,1.65
2019-06-08T19:04:58.656Z,2.00
2019-06-08T19:07:28.281Z,2.05
2019-06-08T19:09:57.818Z,1.82
2019-06-08T19:12:24.977Z,2.10
2019-06-08T19:14:53.556Z,1.77
2019-06-08T19:17:22.083Z,2.00
2019-06-08T19:19:52.284Z,1.50
2019-06-08T19:22:19.884Z,2.02
2019-06-08T19:24:50.645Z,1.80
2019-06-08T19:27:18.373Z,1.80
2019-06-08T19:29:47.533Z,1.70
2019-06-08T19:32:16.954Z,2.00
2019-06-08T19:34:43.914Z,1.72
2019-06-08T19:37:11.965Z,2.10
2019-06-08T19:39:43.177Z,2.17
2019-06-08T19:42:09.200Z,2.20
2019-06-08T19:44:40.460Z,2.15
2019-06-08T19:47:08.098Z,1.90
2019-06-08T19:49:35.324Z,1.90
2019-06-08T19:52:05.244Z,2.30
2019-06-08T19:54:33.724Z,1.50
2019-06-08T19:57:02.369Z,2.05
2019-06-08T19:59:30.957Z,1.40
2019-06-08T20:02:00.003Z,1.42
2019-06-08T20:04:28.112Z,1.67
2019-06-08T20:07:00.209Z,1.67
2019-06-08T20:09:28.203Z,1.55
2019-06-08T20:11:57.780Z,1.60
2019-06-08T20:14:23.517Z,1.90
2019-06-08T20:16:52.977Z,1.80
2019-06-08T20:19:21.481Z,1.40
2019-06-08T20:21:51.556Z,1.65
2019-06-08T20:24:18.897Z,1.30
2019-06-08T20:26:51.716Z,1.80
2019-06-08T20:29:16.609Z,1.70
2019-06-08T20:31:45.477Z,1.52
2019-06-08T20:34:13.581Z,1.95
2019-06-08T20:36:42.469Z,1.75
2019-06-08T20:39:11.045Z,1.70
2019-06-08T20:41:39.833Z,1.80
2019-06-08T20:44:08.623Z,2.00
2019-06-08T20:46:37.845Z,1.55
2019-06-08T20:49:08.193Z,1.45
2019-06-08T20:51:34.617Z,1.70
2019-06-08T20:54:03.234Z,1.57
2019-06-08T20:56:31.867Z,1.37
2019-06-08T20:59:00.633Z,2.50
2019-06-08T21:01:29.330Z,2.52
2019-06-08T21:03:57.869Z,3.80
2019-06-08T21:06:27.990Z,3.12
2019-06-08T21:08:57.467Z,3.80
2019-06-08T21:11:23.840Z,3.67
2019-06-08T21:13:53.913Z,3.37
2019-06-08T21:16:21.286Z,3.62
2019-06-08T21:18:50.856Z,3.92
2019-06-08T21:21:20.083Z,4.33
2019-06-08T21:23:51.659Z,3.98
2019-06-08T21:26:18.392Z,3.00
2019-06-08T21:28:50.609Z,3.80
2019-06-08T21:31:17.656Z,3.10
2019-06-08T21:33:44.411Z,3.05
2019-06-08T21:36:13.110Z,2.98
2019-06-08T21:38:41.759Z,3.30
2019-06-08T21:41:10.734Z,4.20
2019-06-08T21:43:39.490Z,4.12
2019-06-08T21:46:08.099Z,3.50
2019-06-08T21:48:43.606Z,3.40
2019-06-08T21:51:16.805Z,3.77
2019-06-08T21:53:50.063Z,3.90
2019-06-08T21:56:18.658Z,3.72
2019-06-08T21:58:49.739Z,3.98
2019-06-08T22:01:18.068Z,4.00
2019-06-08T22:03:48.212Z,4.03
2019-06-08T22:06:17.678Z,3.37
2019-06-08T22:08:47.976Z,3.67
2019-06-08T22:11:14.458Z,3.67
2019-06-08T22:13:43.021Z,4.03
2019-06-08T22:16:11.590Z,3.10
2019-06-08T22:18:40.145Z,3.67
2019-06-08T22:21:08.698Z,3.15
2019-06-08T22:23:37.313Z,3.27
2019-06-08T22:26:08.296Z,3.58
2019-06-08T22:28:34.930Z,3.12
2019-06-08T22:31:03.830Z,3.50
2019-06-08T22:33:32.158Z,4.50
2019-06-08T22:36:00.976Z,3.60
2019-06-08T22:38:29.554Z,3.20
2019-06-08T22:41:00.023Z,2.98
2019-06-08T22:43:26.774Z,3.10
2019-06-08T22:45:57.546Z,3.02
2019-06-08T22:48:24.217Z,3.10
2019-06-08T22:50:53.743Z,3.33
2019-06-08T22:53:21.466Z,3.60
2019-06-08T22:55:50.026Z,3.10
2019-06-08T22:58:19.153Z,3.17
2019-06-08T23:00:52.645Z,3.27
2019-06-08T23:03:18.517Z,2.98
2019-06-08T23:05:44.937Z,3.20
2019-06-08T23:08:13.785Z,3.02
2019-06-08T23:10:42.348Z,3.30
2019-06-08T23:13:10.853Z,3.00
2019-06-08T23:15:39.461Z,2.90
2019-06-08T23:18:09.354Z,3.05
2019-06-08T23:20:37.123Z,3.00
2019-06-08T23:23:08.576Z,3.12
2019-06-08T23:25:34.073Z,3.30
2019-06-08T23:28:03.360Z,2.80
2019-06-08T23:30:31.837Z,2.67
2019-06-08T23:33:02.680Z,3.10
2019-06-08T23:35:44.099Z,2.67
2019-06-08T23:37:58.858Z,2.70
2019-06-08T23:40:27.254Z,2.30
2019-06-08T23:42:58.086Z,2.90
2019-06-08T23:45:24.269Z,3.83
2019-06-08T23:47:53.109Z,3.40
2019-06-08T23:50:21.709Z,3.45
2019-06-08T23:52:50.529Z,2.80
2019-06-08T23:55:19.085Z,3.10
2019-06-08T23:57:47.669Z,2.90
